sensor_id;sensor_type;location;lat;lon;timestamp;P1;durP1;ratioP1;P2;durP2;ratioP2
64351;SDS011;50680;52.626;-8.668;2023-04-25T00:01:47;8.95;;;3.13;;
64351;SDS011;50680;52.626;-8.668;2023-04-25T00:04:13;8.90;;;3.60;;
64351;SDS011;50680;52.626;-8.668;2023-04-25T00:06:41;7.70;;;2.65;;
64351;SDS011;50680;52.626;-8.668;2023-04-25T00:09:07;6.00;;;2.90;;
64351;SDS011;50680;52.626;-8.668;2023-04-25T00:11:36;6.90;;;3.28;;
64351;SDS011;50680;52.626;-8.668;2023-04-25T00:14:03;7.32;;;3.40;;
64351;SDS011;50680;52.626;-8.668;2023-04-25T00:16:31;7.22;;;3.08;;
64351;SDS011;50680;52.626;-8.668;2023-04-25T00:19:00;8.77;;;2.83;;
64351;SDS011;50680;52.626;-8.668;2023-04-25T00:21:29;9.90;;;3.50;;
64351;SDS011;50680;52.626;-8.668;2023-04-25T00:23:58;8.23;;;3.55;;
64351;SDS011;50680;52.626;-8.668;2023-04-25T00:26:25;7.00;;;2.80;;
64351;SDS011;50680;52.626;-8.668;2023-04-25T00:28:53;6.90;;;3.67;;
64351;SDS011;50680;52.626;-8.668;2023-04-25T00:31:20;14.05;;;3.90;;
64351;SDS011;50680;52.626;-8.668;2023-04-25T00:33:47;8.30;;;3.22;;
64351;SDS011;50680;52.626;-8.668;2023-04-25T00:36:14;10.65;;;3.67;;
64351;SDS011;50680;52.626;-8.668;2023-04-25T00:38:41;6.68;;;3.30;;
64351;SDS011;50680;52.626;-8.668;2023-04-25T00:41:08;5.93;;;3.00;;
64351;SDS011;50680;52.626;-8.668;2023-04-25T00:43:36;8.77;;;3.20;;
64351;SDS011;50680;52.626;-8.668;2023-04-25T00:46:03;9.10;;;3.17;;
64351;SDS011;50680;52.626;-8.668;2023-04-25T00:48:30;6.18;;;2.90;;
64351;SDS011;50680;52.626;-8.668;2023-04-25T00:50:57;5.53;;;2.80;;
64351;SDS011;50680;52.626;-8.668;2023-04-25T00:53:26;6.47;;;3.33;;
64351;SDS011;50680;52.626;-8.668;2023-04-25T00:55:54;12.38;;;3.38;;
64351;SDS011;50680;52.626;-8.668;2023-04-25T00:58:21;10.15;;;3.97;;
64351;SDS011;50680;52.626;-8.668;2023-04-25T01:00:49;9.75;;;3.55;;
64351;SDS011;50680;52.626;-8.668;2023-04-25T01:03:18;7.20;;;3.00;;
64351;SDS011;50680;52.626;-8.668;2023-04-25T01:05:49;7.43;;;3.50;;
64351;SDS011;50680;52.626;-8.668;2023-04-25T01:08:17;9.00;;;3.35;;
64351;SDS011;50680;52.626;-8.668;2023-04-25T01:10:44;11.65;;;3.75;;
64351;SDS011;50680;52.626;-8.668;2023-04-25T01:13:10;8.77;;;3.80;;
64351;SDS011;50680;52.626;-8.668;2023-04-25T01:15:37;9.02;;;4.03;;
64351;SDS011;50680;52.626;-8.668;2023-04-25T01:18:04;9.10;;;3.55;;
64351;SDS011;50680;52.626;-8.668;2023-04-25T01:20:32;12.90;;;4.82;;
64351;SDS011;50680;52.626;-8.668;2023-04-25T01:23:00;8.30;;;3.78;;
64351;SDS011;50680;52.626;-8.668;2023-04-25T01:25:32;7.93;;;4.43;;
64351;SDS011;50680;52.626;-8.668;2023-04-25T01:27:59;12.82;;;5.50;;
64351;SDS011;50680;52.626;-8.668;2023-04-25T01:30:26;13.88;;;5.68;;
64351;SDS011;50680;52.626;-8.668;2023-04-25T01:32:54;9.20;;;4.68;;
64351;SDS011;50680;52.626;-8.668;2023-04-25T01:35:23;18.55;;;4.55;;
64351;SDS011;50680;52.626;-8.668;2023-04-25T01:37:53;8.60;;;4.10;;
64351;SDS011;50680;52.626;-8.668;2023-04-25T01:40:20;7.88;;;3.70;;
64351;SDS011;50680;52.626;-8.668;2023-04-25T01:42:49;11.32;;;4.72;;
64351;SDS011;50680;52.626;-8.668;2023-04-25T01:45:16;12.25;;;4.72;;
64351;SDS011;50680;52.626;-8.668;2023-04-25T01:47:44;10.75;;;4.70;;
64351;SDS011;50680;52.626;-8.668;2023-04-25T01:50:16;12.63;;;5.25;;
64351;SDS011;50680;52.626;-8.668;2023-04-25T01:52:44;14.30;;;5.55;;
64351;SDS011;50680;52.626;-8.668;2023-04-25T01:55:11;10.00;;;4.95;;
64351;SDS011;50680;52.626;-8.668;2023-04-25T01:57:38;11.43;;;5.20;;
64351;SDS011;50680;52.626;-8.668;2023-04-25T02:00:05;18.20;;;5.75;;
64351;SDS011;50680;52.626;-8.668;2023-04-25T02:02:33;15.30;;;5.68;;
64351;SDS011;50680;52.626;-8.668;2023-04-25T02:05:00;11.55;;;5.85;;
64351;SDS011;50680;52.626;-8.668;2023-04-25T02:07:27;15.25;;;5.82;;
64351;SDS011;50680;52.626;-8.668;2023-04-25T02:09:54;12.60;;;5.47;;
64351;SDS011;50680;52.626;-8.668;2023-04-25T02:12:21;11.00;;;4.13;;
64351;SDS011;50680;52.626;-8.668;2023-04-25T02:14:48;9.82;;;4.97;;
64351;SDS011;50680;52.626;-8.668;2023-04-25T02:17:15;11.10;;;5.25;;
64351;SDS011;50680;52.626;-8.668;2023-04-25T02:19:42;15.68;;;5.47;;
64351;SDS011;50680;52.626;-8.668;2023-04-25T02:22:09;14.55;;;5.10;;
64351;SDS011;50680;52.626;-8.668;2023-04-25T02:24:36;14.18;;;6.28;;
64351;SDS011;50680;52.626;-8.668;2023-04-25T02:27:03;17.48;;;6.32;;
64351;SDS011;50680;52.626;-8.668;2023-04-25T02:29:30;12.88;;;5.95;;
64351;SDS011;50680;52.626;-8.668;2023-04-25T02:31:57;11.50;;;5.00;;
64351;SDS011;50680;52.626;-8.668;2023-04-25T02:34:23;10.98;;;5.07;;
64351;SDS011;50680;52.626;-8.668;2023-04-25T02:36:50;19.90;;;6.03;;
64351;SDS011;50680;52.626;-8.668;2023-04-25T02:39:17;11.52;;;5.10;;
64351;SDS011;50680;52.626;-8.668;2023-04-25T02:41:45;9.93;;;4.28;;
64351;SDS011;50680;52.626;-8.668;2023-04-25T02:44:11;13.25;;;5.18;;
64351;SDS011;50680;52.626;-8.668;2023-04-25T02:46:38;10.25;;;4.82;;
64351;SDS011;50680;52.626;-8.668;2023-04-25T02:49:06;11.02;;;4.97;;
64351;SDS011;50680;52.626;-8.668;2023-04-25T02:51:33;9.18;;;4.28;;
64351;SDS011;50680;52.626;-8.668;2023-04-25T02:54:00;13.45;;;5.63;;
64351;SDS011;50680;52.626;-8.668;2023-04-25T02:56:26;11.43;;;5.43;;
64351;SDS011;50680;52.626;-8.668;2023-04-25T02:58:53;16.85;;;5.80;;
64351;SDS011;50680;52.626;-8.668;2023-04-25T03:01:20;16.42;;;4.85;;
64351;SDS011;50680;52.626;-8.668;2023-04-25T03:03:47;10.32;;;4.70;;
64351;SDS011;50680;52.626;-8.668;2023-04-25T03:06:14;13.40;;;4.45;;
64351;SDS011;50680;52.626;-8.668;2023-04-25T03:08:42;13.02;;;5.10;;
64351;SDS011;50680;52.626;-8.668;2023-04-25T03:11:09;11.77;;;4.65;;
64351;SDS011;50680;52.626;-8.668;2023-04-25T03:13:36;11.95;;;4.40;;
64351;SDS011;50680;52.626;-8.668;2023-04-25T03:16:03;9.10;;;3.83;;
64351;SDS011;50680;52.626;-8.668;2023-04-25T03:18:31;10.20;;;4.35;;
64351;SDS011;50680;52.626;-8.668;2023-04-25T03:20:57;16.52;;;4.90;;
64351;SDS011;50680;52.626;-8.668;2023-04-25T03:23:25;13.68;;;4.68;;
64351;SDS011;50680;52.626;-8.668;2023-04-25T03:25:52;9.02;;;4.10;;
64351;SDS011;50680;52.626;-8.668;2023-04-25T03:28:19;13.80;;;5.00;;
64351;SDS011;50680;52.626;-8.668;2023-04-25T03:30:46;12.55;;;4.75;;
64351;SDS011;50680;52.626;-8.668;2023-04-25T03:33:13;10.20;;;4.85;;
64351;SDS011;50680;52.626;-8.668;2023-04-25T03:35:40;10.05;;;4.13;;
64351;SDS011;50680;52.626;-8.668;2023-04-25T03:38:06;11.23;;;4.30;;
64351;SDS011;50680;52.626;-8.668;2023-04-25T03:40:33;9.27;;;4.10;;
64351;SDS011;50680;52.626;-8.668;2023-04-25T03:43:00;12.10;;;5.38;;
64351;SDS011;50680;52.626;-8.668;2023-04-25T03:45:27;19.80;;;5.10;;
64351;SDS011;50680;52.626;-8.668;2023-04-25T03:47:54;16.55;;;5.38;;
64351;SDS011;50680;52.626;-8.668;2023-04-25T03:50:21;15.38;;;5.35;;
64351;SDS011;50680;52.626;-8.668;2023-04-25T03:52:47;14.23;;;5.18;;
64351;SDS011;50680;52.626;-8.668;2023-04-25T03:55:14;20.30;;;5.95;;
64351;SDS011;50680;52.626;-8.668;2023-04-25T03:57:41;15.73;;;5.93;;
64351;SDS011;50680;52.626;-8.668;2023-04-25T04:00:08;17.42;;;6.10;;
64351;SDS011;50680;52.626;-8.668;2023-04-25T04:02:36;19.98;;;7.07;;
64351;SDS011;50680;52.626;-8.668;2023-04-25T04:05:04;17.20;;;6.05;;
64351;SDS011;50680;52.626;-8.668;2023-04-25T04:07:32;12.20;;;5.18;;
64351;SDS011;50680;52.626;-8.668;2023-04-25T04:09:59;19.95;;;5.97;;
64351;SDS011;50680;52.626;-8.668;2023-04-25T04:12:26;11.93;;;5.88;;
64351;SDS011;50680;52.626;-8.668;2023-04-25T04:14:53;13.38;;;5.85;;
64351;SDS011;50680;52.626;-8.668;2023-04-25T04:17:20;13.57;;;4.78;;
64351;SDS011;50680;52.626;-8.668;2023-04-25T04:19:46;14.15;;;5.63;;
64351;SDS011;50680;52.626;-8.668;2023-04-25T04:22:13;15.57;;;5.22;;
64351;SDS011;50680;52.626;-8.668;2023-04-25T04:24:40;14.20;;;5.57;;
64351;SDS011;50680;52.626;-8.668;2023-04-25T04:27:10;12.07;;;4.90;;
64351;SDS011;50680;52.626;-8.668;2023-04-25T04:29:38;12.82;;;5.38;;
64351;SDS011;50680;52.626;-8.668;2023-04-25T04:32:05;13.63;;;4.72;;
64351;SDS011;50680;52.626;-8.668;2023-04-25T04:34:35;13.15;;;5.40;;
64351;SDS011;50680;52.626;-8.668;2023-04-25T04:37:02;11.00;;;4.47;;
64351;SDS011;50680;52.626;-8.668;2023-04-25T04:39:29;9.95;;;4.93;;
64351;SDS011;50680;52.626;-8.668;2023-04-25T04:41:55;14.55;;;4.97;;
64351;SDS011;50680;52.626;-8.668;2023-04-25T04:44:22;11.38;;;4.65;;
64351;SDS011;50680;52.626;-8.668;2023-04-25T04:46:49;18.35;;;7.10;;
64351;SDS011;50680;52.626;-8.668;2023-04-25T04:49:17;15.68;;;6.95;;
64351;SDS011;50680;52.626;-8.668;2023-04-25T04:51:43;13.32;;;6.85;;
64351;SDS011;50680;52.626;-8.668;2023-04-25T04:54:11;15.30;;;5.32;;
64351;SDS011;50680;52.626;-8.668;2023-04-25T04:56:37;10.40;;;5.18;;
64351;SDS011;50680;52.626;-8.668;2023-04-25T04:59:05;11.48;;;6.22;;
64351;SDS011;50680;52.626;-8.668;2023-04-25T05:01:31;17.00;;;6.82;;
64351;SDS011;50680;52.626;-8.668;2023-04-25T05:03:58;16.27;;;5.65;;
64351;SDS011;50680;52.626;-8.668;2023-04-25T05:06:27;14.80;;;5.75;;
64351;SDS011;50680;52.626;-8.668;2023-04-25T05:08:57;14.20;;;5.68;;
64351;SDS011;50680;52.626;-8.668;2023-04-25T05:11:24;11.40;;;5.15;;
64351;SDS011;50680;52.626;-8.668;2023-04-25T05:13:51;11.35;;;4.50;;
64351;SDS011;50680;52.626;-8.668;2023-04-25T05:16:19;14.75;;;5.32;;
64351;SDS011;50680;52.626;-8.668;2023-04-25T05:18:46;17.67;;;6.32;;
64351;SDS011;50680;52.626;-8.668;2023-04-25T05:21:13;17.23;;;6.65;;
64351;SDS011;50680;52.626;-8.668;2023-04-25T05:23:40;14.23;;;5.30;;
64351;SDS011;50680;52.626;-8.668;2023-04-25T05:26:07;14.23;;;4.97;;
64351;SDS011;50680;52.626;-8.668;2023-04-25T05:28:40;15.65;;;5.00;;
64351;SDS011;50680;52.626;-8.668;2023-04-25T05:31:10;11.48;;;4.43;;
64351;SDS011;50680;52.626;-8.668;2023-04-25T05:33:37;11.40;;;4.35;;
64351;SDS011;50680;52.626;-8.668;2023-04-25T05:36:04;7.63;;;3.78;;
64351;SDS011;50680;52.626;-8.668;2023-04-25T05:38:32;9.15;;;4.40;;
64351;SDS011;50680;52.626;-8.668;2023-04-25T05:41:00;10.43;;;4.47;;
64351;SDS011;50680;52.626;-8.668;2023-04-25T05:43:27;11.52;;;4.72;;
64351;SDS011;50680;52.626;-8.668;2023-04-25T05:45:54;11.93;;;4.10;;
64351;SDS011;50680;52.626;-8.668;2023-04-25T05:48:20;11.13;;;3.95;;
64351;SDS011;50680;52.626;-8.668;2023-04-25T05:50:47;11.80;;;4.53;;
64351;SDS011;50680;52.626;-8.668;2023-04-25T05:53:14;9.63;;;4.00;;
64351;SDS011;50680;52.626;-8.668;2023-04-25T05:55:41;7.93;;;4.15;;
64351;SDS011;50680;52.626;-8.668;2023-04-25T05:58:08;11.88;;;3.65;;
64351;SDS011;50680;52.626;-8.668;2023-04-25T06:00:34;11.75;;;3.83;;
64351;SDS011;50680;52.626;-8.668;2023-04-25T06:03:01;13.57;;;4.18;;
64351;SDS011;50680;52.626;-8.668;2023-04-25T06:05:29;9.95;;;3.67;;
64351;SDS011;50680;52.626;-8.668;2023-04-25T06:07:56;9.93;;;3.95;;
64351;SDS011;50680;52.626;-8.668;2023-04-25T06:10:23;9.05;;;3.25;;
64351;SDS011;50680;52.626;-8.668;2023-04-25T06:12:50;9.70;;;3.03;;
64351;SDS011;50680;52.626;-8.668;2023-04-25T06:15:17;8.20;;;3.30;;
64351;SDS011;50680;52.626;-8.668;2023-04-25T06:17:54;12.75;;;3.50;;
64351;SDS011;50680;52.626;-8.668;2023-04-25T06:20:21;6.45;;;3.00;;
64351;SDS011;50680;52.626;-8.668;2023-04-25T06:22:50;9.25;;;2.85;;
64351;SDS011;50680;52.626;-8.668;2023-04-25T06:25:18;5.53;;;2.58;;
64351;SDS011;50680;52.626;-8.668;2023-04-25T06:27:45;4.97;;;2.30;;
64351;SDS011;50680;52.626;-8.668;2023-04-25T06:30:11;4.00;;;2.20;;
64351;SDS011;50680;52.626;-8.668;2023-04-25T06:32:38;7.97;;;2.63;;
64351;SDS011;50680;52.626;-8.668;2023-04-25T06:35:06;5.85;;;2.40;;
64351;SDS011;50680;52.626;-8.668;2023-04-25T06:37:33;6.68;;;2.65;;
64351;SDS011;50680;52.626;-8.668;2023-04-25T06:39:59;6.72;;;2.47;;
64351;SDS011;50680;52.626;-8.668;2023-04-25T06:42:26;5.00;;;2.55;;
64351;SDS011;50680;52.626;-8.668;2023-04-25T06:44:53;6.13;;;2.72;;
64351;SDS011;50680;52.626;-8.668;2023-04-25T06:47:20;6.32;;;3.13;;
64351;SDS011;50680;52.626;-8.668;2023-04-25T06:49:47;7.32;;;2.50;;
64351;SDS011;50680;52.626;-8.668;2023-04-25T06:52:13;5.82;;;2.38;;
64351;SDS011;50680;52.626;-8.668;2023-04-25T06:54:40;4.15;;;2.50;;
64351;SDS011;50680;52.626;-8.668;2023-04-25T06:57:07;6.45;;;2.53;;
64351;SDS011;50680;52.626;-8.668;2023-04-25T06:59:34;10.02;;;2.80;;
64351;SDS011;50680;52.626;-8.668;2023-04-25T07:02:01;6.03;;;2.45;;
64351;SDS011;50680;52.626;-8.668;2023-04-25T07:04:28;6.68;;;2.70;;
64351;SDS011;50680;52.626;-8.668;2023-04-25T07:06:55;9.27;;;3.08;;
64351;SDS011;50680;52.626;-8.668;2023-04-25T07:09:22;6.15;;;2.50;;
64351;SDS011;50680;52.626;-8.668;2023-04-25T07:11:49;7.30;;;3.28;;
64351;SDS011;50680;52.626;-8.668;2023-04-25T07:14:16;14.32;;;3.08;;
64351;SDS011;50680;52.626;-8.668;2023-04-25T07:16:43;6.80;;;3.28;;
64351;SDS011;50680;52.626;-8.668;2023-04-25T07:19:09;10.32;;;3.00;;
64351;SDS011;50680;52.626;-8.668;2023-04-25T07:21:36;7.88;;;3.20;;
64351;SDS011;50680;52.626;-8.668;2023-04-25T07:24:03;9.65;;;3.88;;
64351;SDS011;50680;52.626;-8.668;2023-04-25T07:26:30;9.63;;;3.38;;
64351;SDS011;50680;52.626;-8.668;2023-04-25T07:28:57;7.55;;;3.10;;
64351;SDS011;50680;52.626;-8.668;2023-04-25T07:31:24;10.57;;;3.05;;
64351;SDS011;50680;52.626;-8.668;2023-04-25T07:33:51;11.07;;;3.50;;
64351;SDS011;50680;52.626;-8.668;2023-04-25T07:36:18;8.13;;;2.80;;
64351;SDS011;50680;52.626;-8.668;2023-04-25T07:38:45;9.73;;;2.92;;
64351;SDS011;50680;52.626;-8.668;2023-04-25T07:41:11;6.15;;;2.92;;
64351;SDS011;50680;52.626;-8.668;2023-04-25T07:43:38;5.45;;;2.67;;
64351;SDS011;50680;52.626;-8.668;2023-04-25T07:46:05;11.38;;;2.88;;
64351;SDS011;50680;52.626;-8.668;2023-04-25T07:48:32;6.82;;;2.75;;
64351;SDS011;50680;52.626;-8.668;2023-04-25T07:50:59;9.93;;;3.17;;
64351;SDS011;50680;52.626;-8.668;2023-04-25T07:53:26;12.07;;;3.53;;
64351;SDS011;50680;52.626;-8.668;2023-04-25T07:55:53;9.63;;;2.97;;
64351;SDS011;50680;52.626;-8.668;2023-04-25T07:58:20;11.15;;;3.05;;
64351;SDS011;50680;52.626;-8.668;2023-04-25T08:00:48;11.20;;;3.10;;
64351;SDS011;50680;52.626;-8.668;2023-04-25T08:03:16;7.90;;;3.03;;
64351;SDS011;50680;52.626;-8.668;2023-04-25T08:05:43;8.57;;;3.10;;
64351;SDS011;50680;52.626;-8.668;2023-04-25T08:08:10;7.45;;;3.00;;
64351;SDS011;50680;52.626;-8.668;2023-04-25T08:10:37;10.02;;;2.70;;
64351;SDS011;50680;52.626;-8.668;2023-04-25T08:13:04;9.18;;;2.55;;
64351;SDS011;50680;52.626;-8.668;2023-04-25T08:15:30;5.97;;;2.45;;
64351;SDS011;50680;52.626;-8.668;2023-04-25T08:17:57;7.20;;;2.63;;
64351;SDS011;50680;52.626;-8.668;2023-04-25T08:20:25;5.07;;;2.50;;
64351;SDS011;50680;52.626;-8.668;2023-04-25T08:22:52;5.45;;;1.90;;
64351;SDS011;50680;52.626;-8.668;2023-04-25T08:25:19;6.13;;;2.67;;
64351;SDS011;50680;52.626;-8.668;2023-04-25T08:27:46;6.22;;;2.10;;
64351;SDS011;50680;52.626;-8.668;2023-04-25T08:30:13;4.75;;;2.03;;
64351;SDS011;50680;52.626;-8.668;2023-04-25T08:32:40;6.65;;;2.15;;
64351;SDS011;50680;52.626;-8.668;2023-04-25T08:35:07;4.93;;;2.35;;
64351;SDS011;50680;52.626;-8.668;2023-04-25T08:37:34;6.88;;;2.10;;
64351;SDS011;50680;52.626;-8.668;2023-04-25T08:40:03;8.30;;;2.20;;
64351;SDS011;50680;52.626;-8.668;2023-04-25T08:42:33;5.28;;;2.47;;
64351;SDS011;50680;52.626;-8.668;2023-04-25T08:45:03;7.18;;;2.20;;
64351;SDS011;50680;52.626;-8.668;2023-04-25T08:47:32;4.70;;;2.72;;
64351;SDS011;50680;52.626;-8.668;2023-04-25T08:50:03;7.82;;;2.40;;
64351;SDS011;50680;52.626;-8.668;2023-04-25T08:52:39;6.97;;;2.60;;
64351;SDS011;50680;52.626;-8.668;2023-04-25T08:55:12;6.97;;;2.00;;
64351;SDS011;50680;52.626;-8.668;2023-04-25T08:57:41;8.65;;;2.60;;
64351;SDS011;50680;52.626;-8.668;2023-04-25T09:00:12;4.73;;;1.83;;
64351;SDS011;50680;52.626;-8.668;2023-04-25T09:02:39;6.05;;;2.47;;
64351;SDS011;50680;52.626;-8.668;2023-04-25T09:05:07;4.38;;;2.00;;
64351;SDS011;50680;52.626;-8.668;2023-04-25T09:07:36;4.13;;;1.73;;
64351;SDS011;50680;52.626;-8.668;2023-04-25T09:10:03;4.18;;;1.50;;
64351;SDS011;50680;52.626;-8.668;2023-04-25T09:12:30;11.02;;;2.35;;
64351;SDS011;50680;52.626;-8.668;2023-04-25T09:15:02;6.50;;;2.08;;
64351;SDS011;50680;52.626;-8.668;2023-04-25T09:17:31;3.95;;;1.55;;
64351;SDS011;50680;52.626;-8.668;2023-04-25T09:20:08;7.03;;;1.73;;
64351;SDS011;50680;52.626;-8.668;2023-04-25T09:22:36;4.57;;;1.70;;
64351;SDS011;50680;52.626;-8.668;2023-04-25T09:25:07;6.20;;;1.50;;
64351;SDS011;50680;52.626;-8.668;2023-04-25T09:27:36;4.90;;;1.70;;
64351;SDS011;50680;52.626;-8.668;2023-04-25T09:30:03;4.32;;;1.60;;
64351;SDS011;50680;52.626;-8.668;2023-04-25T09:32:30;5.53;;;1.80;;
64351;SDS011;50680;52.626;-8.668;2023-04-25T09:34:57;7.00;;;1.65;;
64351;SDS011;50680;52.626;-8.668;2023-04-25T09:37:28;3.97;;;1.50;;
64351;SDS011;50680;52.626;-8.668;2023-04-25T09:39:59;4.95;;;1.80;;
64351;SDS011;50680;52.626;-8.668;2023-04-25T09:42:29;4.53;;;1.70;;
64351;SDS011;50680;52.626;-8.668;2023-04-25T09:44:58;5.13;;;2.05;;
64351;SDS011;50680;52.626;-8.668;2023-04-25T09:47:28;7.40;;;1.70;;
64351;SDS011;50680;52.626;-8.668;2023-04-25T09:49:55;4.05;;;1.52;;
64351;SDS011;50680;52.626;-8.668;2023-04-25T09:52:23;6.57;;;1.58;;
64351;SDS011;50680;52.626;-8.668;2023-04-25T09:54:51;3.25;;;1.35;;
64351;SDS011;50680;52.626;-8.668;2023-04-25T09:57:20;7.13;;;1.88;;
64351;SDS011;50680;52.626;-8.668;2023-04-25T09:59:49;5.72;;;1.38;;
64351;SDS011;50680;52.626;-8.668;2023-04-25T10:02:18;6.10;;;1.42;;
64351;SDS011;50680;52.626;-8.668;2023-04-25T10:04:48;4.25;;;1.30;;
64351;SDS011;50680;52.626;-8.668;2023-04-25T10:07:19;6.65;;;1.60;;
64351;SDS011;50680;52.626;-8.668;2023-04-25T10:09:48;9.90;;;1.10;;
64351;SDS011;50680;52.626;-8.668;2023-04-25T10:12:18;8.88;;;1.27;;
64351;SDS011;50680;52.626;-8.668;2023-04-25T10:14:46;7.57;;;1.63;;
64351;SDS011;50680;52.626;-8.668;2023-04-25T10:17:14;7.63;;;0.90;;
64351;SDS011;50680;52.626;-8.668;2023-04-25T10:19:41;4.63;;;1.30;;
64351;SDS011;50680;52.626;-8.668;2023-04-25T10:22:12;4.50;;;1.13;;
64351;SDS011;50680;52.626;-8.668;2023-04-25T10:24:58;4.63;;;1.10;;
64351;SDS011;50680;52.626;-8.668;2023-04-25T10:27:27;10.05;;;1.40;;
64351;SDS011;50680;52.626;-8.668;2023-04-25T10:30:04;10.30;;;1.30;;
64351;SDS011;50680;52.626;-8.668;2023-04-25T10:32:31;7.30;;;1.52;;
64351;SDS011;50680;52.626;-8.668;2023-04-25T10:40:38;4.53;;;1.40;;
64351;SDS011;50680;52.626;-8.668;2023-04-25T10:45:59;2.83;;;1.00;;
64351;SDS011;50680;52.626;-8.668;2023-04-25T10:48:30;4.25;;;1.30;;
64351;SDS011;50680;52.626;-8.668;2023-04-25T10:51:10;1.75;;;1.05;;
64351;SDS011;50680;52.626;-8.668;2023-04-25T10:53:38;3.35;;;1.20;;
64351;SDS011;50680;52.626;-8.668;2023-04-25T10:56:12;8.23;;;1.50;;
64351;SDS011;50680;52.626;-8.668;2023-04-25T10:58:45;7.38;;;1.70;;
64351;SDS011;50680;52.626;-8.668;2023-04-25T11:01:15;3.10;;;1.17;;
64351;SDS011;50680;52.626;-8.668;2023-04-25T11:03:46;5.55;;;1.50;;
64351;SDS011;50680;52.626;-8.668;2023-04-25T11:06:27;5.53;;;1.23;;
64351;SDS011;50680;52.626;-8.668;2023-04-25T11:09:01;2.92;;;1.33;;
64351;SDS011;50680;52.626;-8.668;2023-04-25T11:11:28;6.93;;;1.50;;
64351;SDS011;50680;52.626;-8.668;2023-04-25T11:13:56;5.18;;;1.20;;
64351;SDS011;50680;52.626;-8.668;2023-04-25T11:16:26;6.35;;;1.15;;
64351;SDS011;50680;52.626;-8.668;2023-04-25T11:18:56;3.10;;;1.20;;
64351;SDS011;50680;52.626;-8.668;2023-04-25T11:21:26;4.38;;;1.20;;
64351;SDS011;50680;52.626;-8.668;2023-04-25T11:23:58;8.88;;;1.17;;
64351;SDS011;50680;52.626;-8.668;2023-04-25T11:26:26;3.40;;;1.10;;
64351;SDS011;50680;52.626;-8.668;2023-04-25T11:28:56;4.10;;;1.13;;
64351;SDS011;50680;52.626;-8.668;2023-04-25T11:31:25;4.40;;;1.13;;
64351;SDS011;50680;52.626;-8.668;2023-04-25T11:33:58;6.05;;;1.35;;
64351;SDS011;50680;52.626;-8.668;2023-04-25T11:36:25;9.13;;;1.30;;
64351;SDS011;50680;52.626;-8.668;2023-04-25T11:38:53;5.30;;;1.52;;
64351;SDS011;50680;52.626;-8.668;2023-04-25T11:41:20;6.63;;;1.20;;
64351;SDS011;50680;52.626;-8.668;2023-04-25T11:43:48;9.90;;;1.60;;
64351;SDS011;50680;52.626;-8.668;2023-04-25T11:46:16;4.80;;;1.63;;
64351;SDS011;50680;52.626;-8.668;2023-04-25T11:48:43;5.13;;;1.20;;
64351;SDS011;50680;52.626;-8.668;2023-04-25T11:51:10;7.72;;;1.80;;
64351;SDS011;50680;52.626;-8.668;2023-04-25T11:53:40;5.70;;;1.30;;
64351;SDS011;50680;52.626;-8.668;2023-04-25T12:01:31;5.50;;;1.33;;
64351;SDS011;50680;52.626;-8.668;2023-04-25T12:06:49;6.43;;;1.35;;
64351;SDS011;50680;52.626;-8.668;2023-04-25T12:09:18;5.05;;;1.30;;
64351;SDS011;50680;52.626;-8.668;2023-04-25T12:11:53;7.95;;;1.58;;
64351;SDS011;50680;52.626;-8.668;2023-04-25T12:14:25;7.03;;;1.20;;
64351;SDS011;50680;52.626;-8.668;2023-04-25T12:17:00;6.95;;;1.70;;
64351;SDS011;50680;52.626;-8.668;2023-04-25T12:19:33;6.60;;;1.55;;
64351;SDS011;50680;52.626;-8.668;2023-04-25T12:22:02;6.85;;;1.70;;
64351;SDS011;50680;52.626;-8.668;2023-04-25T12:24:32;8.60;;;2.03;;
64351;SDS011;50680;52.626;-8.668;2023-04-25T12:27:04;8.70;;;2.17;;
64351;SDS011;50680;52.626;-8.668;2023-04-25T12:29:33;5.07;;;1.73;;
64351;SDS011;50680;52.626;-8.668;2023-04-25T12:32:14;8.98;;;1.80;;
64351;SDS011;50680;52.626;-8.668;2023-04-25T12:34:42;5.80;;;2.03;;
64351;SDS011;50680;52.626;-8.668;2023-04-25T12:37:09;4.70;;;1.70;;
64351;SDS011;50680;52.626;-8.668;2023-04-25T12:39:36;7.95;;;2.30;;
64351;SDS011;50680;52.626;-8.668;2023-04-25T12:42:03;6.38;;;2.38;;
64351;SDS011;50680;52.626;-8.668;2023-04-25T12:44:34;4.80;;;2.03;;
64351;SDS011;50680;52.626;-8.668;2023-04-25T12:47:01;8.43;;;1.90;;
64351;SDS011;50680;52.626;-8.668;2023-04-25T12:49:29;4.90;;;1.95;;
64351;SDS011;50680;52.626;-8.668;2023-04-25T12:51:56;5.50;;;1.80;;
64351;SDS011;50680;52.626;-8.668;2023-04-25T12:54:23;5.50;;;2.10;;
64351;SDS011;50680;52.626;-8.668;2023-04-25T12:56:51;5.57;;;2.22;;
64351;SDS011;50680;52.626;-8.668;2023-04-25T12:59:17;4.45;;;1.95;;
64351;SDS011;50680;52.626;-8.668;2023-04-25T13:01:46;7.15;;;2.72;;
64351;SDS011;50680;52.626;-8.668;2023-04-25T13:04:13;10.88;;;2.60;;
64351;SDS011;50680;52.626;-8.668;2023-04-25T13:06:40;7.18;;;2.10;;
64351;SDS011;50680;52.626;-8.668;2023-04-25T13:09:06;6.35;;;2.10;;
64351;SDS011;50680;52.626;-8.668;2023-04-25T13:11:33;7.63;;;1.98;;
64351;SDS011;50680;52.626;-8.668;2023-04-25T13:14:00;4.15;;;1.77;;
64351;SDS011;50680;52.626;-8.668;2023-04-25T13:16:28;6.13;;;2.10;;
64351;SDS011;50680;52.626;-8.668;2023-04-25T13:18:55;5.60;;;1.70;;
64351;SDS011;50680;52.626;-8.668;2023-04-25T13:21:22;8.15;;;2.10;;
64351;SDS011;50680;52.626;-8.668;2023-04-25T13:23:49;6.95;;;1.88;;
64351;SDS011;50680;52.626;-8.668;2023-04-25T13:26:17;8.98;;;2.40;;
64351;SDS011;50680;52.626;-8.668;2023-04-25T13:28:44;6.38;;;2.08;;
64351;SDS011;50680;52.626;-8.668;2023-04-25T13:31:11;11.15;;;2.40;;
64351;SDS011;50680;52.626;-8.668;2023-04-25T13:33:38;7.20;;;2.75;;
64351;SDS011;50680;52.626;-8.668;2023-04-25T13:36:04;6.47;;;2.85;;
64351;SDS011;50680;52.626;-8.668;2023-04-25T13:38:32;9.82;;;3.10;;
64351;SDS011;50680;52.626;-8.668;2023-04-25T13:40:58;9.88;;;3.63;;
64351;SDS011;50680;52.626;-8.668;2023-04-25T13:43:25;10.20;;;3.00;;
64351;SDS011;50680;52.626;-8.668;2023-04-25T13:45:52;6.65;;;3.13;;
64351;SDS011;50680;52.626;-8.668;2023-04-25T13:48:19;7.70;;;3.38;;
64351;SDS011;50680;52.626;-8.668;2023-04-25T13:50:47;9.45;;;3.60;;
64351;SDS011;50680;52.626;-8.668;2023-04-25T13:53:13;11.55;;;4.03;;
64351;SDS011;50680;52.626;-8.668;2023-04-25T13:55:40;14.32;;;3.60;;
64351;SDS011;50680;52.626;-8.668;2023-04-25T13:58:07;8.77;;;3.13;;
64351;SDS011;50680;52.626;-8.668;2023-04-25T14:00:36;9.35;;;3.28;;
64351;SDS011;50680;52.626;-8.668;2023-04-25T14:03:06;15.18;;;3.08;;
64351;SDS011;50680;52.626;-8.668;2023-04-25T14:05:36;7.00;;;2.80;;
64351;SDS011;50680;52.626;-8.668;2023-04-25T14:08:07;9.00;;;3.13;;
64351;SDS011;50680;52.626;-8.668;2023-04-25T14:10:34;10.32;;;3.25;;
64351;SDS011;50680;52.626;-8.668;2023-04-25T14:13:02;11.90;;;3.03;;
64351;SDS011;50680;52.626;-8.668;2023-04-25T14:15:31;6.18;;;2.38;;
64351;SDS011;50680;52.626;-8.668;2023-04-25T14:17:59;7.38;;;2.92;;
64351;SDS011;50680;52.626;-8.668;2023-04-25T14:20:26;11.50;;;2.58;;
64351;SDS011;50680;52.626;-8.668;2023-04-25T14:22:53;6.30;;;2.83;;
64351;SDS011;50680;52.626;-8.668;2023-04-25T14:25:22;5.90;;;2.80;;
64351;SDS011;50680;52.626;-8.668;2023-04-25T14:27:49;9.25;;;2.95;;
64351;SDS011;50680;52.626;-8.668;2023-04-25T14:30:17;6.32;;;2.70;;
64351;SDS011;50680;52.626;-8.668;2023-04-25T14:32:45;4.40;;;2.33;;
64351;SDS011;50680;52.626;-8.668;2023-04-25T14:35:12;9.30;;;2.67;;
64351;SDS011;50680;52.626;-8.668;2023-04-25T14:37:39;7.32;;;2.80;;
64351;SDS011;50680;52.626;-8.668;2023-04-25T14:40:06;6.38;;;3.10;;
64351;SDS011;50680;52.626;-8.668;2023-04-25T14:42:39;8.30;;;3.17;;
64351;SDS011;50680;52.626;-8.668;2023-04-25T14:45:07;7.60;;;3.42;;
64351;SDS011;50680;52.626;-8.668;2023-04-25T14:47:37;6.47;;;3.83;;
64351;SDS011;50680;52.626;-8.668;2023-04-25T14:50:05;8.52;;;3.13;;
64351;SDS011;50680;52.626;-8.668;2023-04-25T14:52:33;12.95;;;3.53;;